createdAt,value
2023-04-19T00:01:11.274Z,55.67
2023-04-19T00:03:39.502Z,55.52
2023-04-19T00:06:08.508Z,55.60
2023-04-19T00:08:35.789Z,55.55
2023-04-19T00:11:03.072Z,55.45
2023-04-19T00:13:30.416Z,55.24
2023-04-19T00:15:57.715Z,54.64
2023-04-19T00:18:24.985Z,54.92
2023-04-19T00:20:52.308Z,55.16
2023-04-19T00:23:19.614Z,54.99
2023-04-19T00:25:46.939Z,55.17
2023-04-19T00:28:14.192Z,55.09
2023-04-19T00:30:43.521Z,55.10
2023-04-19T00:33:12.953Z,55.21
2023-04-19T00:35:41.325Z,55.51
2023-04-19T00:38:08.635Z,55.80
2023-04-19T00:40:37.679Z,55.91
2023-04-19T00:43:05.640Z,55.84
2023-04-19T00:45:35.231Z,55.99
2023-04-19T00:48:02.720Z,55.93
2023-04-19T00:50:30.582Z,55.89
2023-04-19T00:52:57.906Z,56.13
2023-04-19T00:55:26.020Z,56.25
2023-04-19T00:57:53.805Z,56.20
2023-04-19T01:00:21.131Z,56.26
2023-04-19T01:02:48.722Z,56.34
2023-04-19T01:05:16.469Z,56.45
2023-04-19T01:07:43.811Z,56.52
2023-04-19T01:10:15.122Z,56.74
2023-04-19T01:12:42.459Z,57.02
2023-04-19T01:15:11.771Z,56.96
2023-04-19T01:17:39.178Z,57.01
2023-04-19T01:20:08.134Z,57.13
2023-04-19T01:22:37.752Z,57.33
2023-04-19T01:25:06.512Z,57.45
2023-04-19T01:27:33.836Z,57.28
2023-04-19T01:30:01.143Z,57.01
2023-04-19T01:32:28.487Z,57.07
2023-04-19T01:34:56.753Z,57.51
2023-04-19T01:37:24.131Z,57.14
2023-04-19T01:39:51.436Z,57.10
2023-04-19T01:42:18.864Z,57.24
2023-04-19T01:44:46.277Z,57.57
2023-04-19T01:47:13.637Z,57.40
2023-04-19T01:49:41.134Z,57.75
2023-04-19T01:52:09.277Z,57.70
2023-04-19T01:54:36.509Z,57.59
2023-04-19T01:57:03.792Z,57.88
2023-04-19T01:59:31.530Z,58.17
2023-04-19T02:01:59.005Z,58.27
2023-04-19T02:04:26.502Z,58.31
2023-04-19T02:06:53.906Z,58.44
2023-04-19T02:09:21.253Z,58.29
2023-04-19T02:11:48.610Z,58.49
2023-04-19T02:14:16.182Z,58.69
2023-04-19T02:16:43.865Z,58.73
2023-04-19T02:19:11.448Z,59.12
2023-04-19T02:21:39.388Z,58.88
2023-04-19T02:24:07.079Z,59.33
2023-04-19T02:26:34.369Z,58.97
2023-04-19T02:29:01.739Z,59.53
2023-04-19T02:31:29.041Z,59.63
2023-04-19T02:33:56.330Z,59.99
2023-04-19T02:36:23.625Z,59.61
2023-04-19T02:38:50.955Z,59.82
2023-04-19T02:41:20.699Z,59.71
2023-04-19T02:43:48.023Z,59.92
2023-04-19T02:46:15.512Z,60.44
2023-04-19T02:48:42.819Z,60.60
2023-04-19T02:51:18.238Z,60.82
2023-04-19T02:53:45.626Z,60.91
2023-04-19T02:56:13.072Z,61.33
2023-04-19T02:58:40.528Z,61.39
2023-04-19T03:01:08.064Z,61.32
2023-04-19T03:03:35.532Z,61.54
2023-04-19T03:06:03.118Z,62.20
2023-04-19T03:08:31.694Z,62.29
2023-04-19T03:10:59.456Z,62.27
2023-04-19T03:13:26.827Z,62.52
2023-04-19T03:15:54.174Z,61.89
2023-04-19T03:18:23.297Z,62.36
2023-04-19T03:20:52.348Z,62.33
2023-04-19T03:23:19.775Z,62.63
2023-04-19T03:25:49.918Z,62.28
2023-04-19T03:28:27.636Z,62.79
2023-04-19T03:31:13.272Z,62.59
2023-04-19T03:33:41.232Z,62.41
2023-04-19T03:36:09.800Z,62.61
2023-04-19T03:38:38.790Z,62.79
2023-04-19T03:41:19.927Z,62.65
2023-04-19T03:43:48.509Z,62.26
2023-04-19T03:46:15.916Z,62.33
2023-04-19T03:48:43.678Z,62.67
2023-04-19T03:51:12.979Z,62.52
2023-04-19T03:53:40.627Z,62.27
2023-04-19T03:56:08.073Z,62.30
2023-04-19T03:58:35.393Z,61.94
2023-04-19T04:01:08.475Z,62.93
2023-04-19T04:03:36.183Z,62.69
2023-04-19T04:06:04.971Z,63.26
2023-04-19T04:08:32.296Z,62.38
2023-04-19T04:10:59.653Z,62.53
2023-04-19T04:13:27.396Z,62.47
2023-04-19T04:16:06.884Z,62.84
2023-04-19T04:18:34.984Z,62.65
2023-04-19T04:21:05.349Z,62.73
2023-04-19T04:23:35.427Z,62.65
2023-04-19T04:26:05.494Z,62.86
2023-04-19T04:28:52.215Z,62.64
2023-04-19T04:31:21.211Z,63.00
2023-04-19T04:33:48.905Z,62.78
2023-04-19T04:36:19.284Z,63.01
2023-04-19T04:38:47.991Z,62.60
2023-04-19T04:41:16.664Z,62.72
2023-04-19T04:43:58.577Z,62.55
2023-04-19T04:46:37.888Z,61.98
2023-04-19T04:49:05.565Z,61.53
2023-04-19T04:51:32.902Z,60.93
2023-04-19T04:54:00.963Z,60.30
2023-04-19T04:56:28.448Z,59.71
2023-04-19T04:58:55.986Z,58.88
2023-04-19T05:01:30.867Z,58.68
2023-04-19T05:03:58.421Z,58.36
2023-04-19T05:06:26.699Z,58.35
2023-04-19T05:08:54.566Z,58.22
2023-04-19T05:11:30.553Z,58.28
2023-04-19T05:13:57.869Z,58.08
2023-04-19T05:16:26.847Z,57.87
2023-04-19T05:18:54.417Z,57.78
2023-04-19T05:21:22.580Z,57.65
2023-04-19T05:23:53.546Z,57.75
2023-04-19T05:26:21.765Z,57.51
2023-04-19T05:28:51.030Z,57.97
2023-04-19T05:31:44.684Z,58.04
2023-04-19T05:34:51.562Z,57.55
2023-04-19T05:37:22.508Z,57.47
2023-04-19T05:39:50.373Z,57.51
2023-04-19T05:42:19.275Z,57.41
2023-04-19T05:44:54.707Z,57.54
2023-04-19T05:47:23.520Z,57.21
2023-04-19T05:50:00.406Z,56.67
2023-04-19T05:52:34.534Z,57.21
2023-04-19T05:55:04.808Z,56.21
2023-04-19T05:57:33.988Z,56.91
2023-04-19T06:00:02.424Z,56.84
2023-04-19T06:02:44.689Z,56.53
2023-04-19T06:05:14.448Z,56.57
2023-04-19T06:07:47.319Z,56.53
2023-04-19T06:10:22.307Z,56.23
2023-04-19T06:12:50.112Z,55.89
2023-04-19T06:15:17.825Z,56.09
2023-04-19T06:17:45.868Z,55.62
2023-04-19T06:20:14.268Z,55.35
2023-04-19T06:22:48.800Z,54.56
2023-04-19T06:25:16.256Z,54.71
2023-04-19T06:27:44.350Z,54.10
2023-04-19T06:30:11.907Z,53.80
2023-04-19T06:32:39.282Z,53.71
2023-04-19T06:35:07.276Z,53.08
2023-04-19T06:37:35.163Z,52.49
2023-04-19T06:40:05.526Z,52.19
2023-04-19T06:42:32.896Z,52.50
2023-04-19T06:45:01.324Z,51.77
2023-04-19T06:47:29.040Z,52.30
2023-04-19T06:49:59.928Z,52.78
2023-04-19T06:52:27.400Z,52.84
2023-04-19T06:54:58.790Z,52.42
2023-04-19T06:57:34.708Z,52.18
2023-04-19T07:00:03.509Z,52.23
2023-04-19T07:02:37.157Z,51.96
2023-04-19T07:05:05.389Z,51.85
2023-04-19T07:07:33.632Z,51.30
2023-04-19T07:10:01.079Z,51.67
2023-04-19T07:12:28.578Z,51.67
2023-04-19T07:14:56.561Z,51.88
2023-04-19T07:17:25.732Z,52.11
2023-04-19T07:19:56.590Z,52.53
2023-04-19T07:22:24.008Z,53.10
2023-04-19T07:24:52.300Z,53.39
2023-04-19T07:27:19.783Z,52.11
2023-04-19T07:29:47.290Z,53.53
2023-04-19T07:32:15.396Z,52.91
2023-04-19T07:34:47.666Z,52.51
2023-04-19T07:37:45.868Z,51.85
2023-04-19T07:40:08.296Z,51.72
2023-04-19T07:42:35.907Z,51.33
2023-04-19T07:45:17.462Z,51.97
2023-04-19T07:47:45.296Z,52.54
2023-04-19T07:50:18.694Z,51.57
2023-04-19T07:52:49.274Z,51.43
2023-04-19T07:55:46.186Z,51.31
2023-04-19T07:58:13.582Z,49.74
2023-04-19T08:00:40.943Z,49.02
2023-04-19T08:03:14.802Z,49.03
2023-04-19T08:05:42.335Z,49.68
2023-04-19T08:08:09.728Z,49.82
2023-04-19T08:10:38.789Z,49.00
2023-04-19T08:13:13.598Z,48.71
2023-04-19T08:18:11.781Z,45.87
2023-04-19T08:20:39.246Z,47.02
2023-04-19T08:23:20.463Z,48.19
2023-04-19T08:25:51.745Z,47.32
2023-04-19T08:28:19.351Z,46.99
2023-04-19T08:30:46.903Z,45.84
2023-04-19T08:33:14.299Z,46.33
2023-04-19T08:35:41.754Z,47.10
2023-04-19T08:38:09.607Z,48.56
2023-04-19T08:40:41.402Z,48.10
2023-04-19T08:43:09.154Z,47.21
2023-04-19T08:45:37.656Z,47.24
2023-04-19T08:48:09.556Z,46.70
2023-04-19T08:50:45.609Z,48.22
2023-04-19T08:53:25.560Z,48.92
2023-04-19T08:58:45.855Z,48.39
2023-04-19T09:01:32.997Z,46.83
2023-04-19T09:04:21.609Z,47.63
2023-04-19T09:06:53.065Z,48.36
2023-04-19T09:11:51.038Z,51.92
2023-04-19T09:14:19.542Z,52.06
2023-04-19T09:16:52.134Z,52.76
2023-04-19T09:22:15.376Z,52.97
2023-04-19T09:27:13.642Z,52.64
2023-04-19T09:29:41.077Z,51.91
2023-04-19T09:32:13.421Z,51.21
2023-04-19T09:34:57.158Z,48.97
2023-04-19T09:40:25.259Z,50.90
2023-04-19T09:43:26.255Z,51.96
2023-04-19T09:45:54.856Z,53.37
2023-04-19T09:48:22.909Z,52.95
2023-04-19T09:51:05.049Z,53.69
2023-04-19T09:53:36.933Z,51.60
2023-04-19T09:56:06.313Z,51.84
2023-04-19T09:58:49.615Z,51.85
2023-04-19T10:01:20.252Z,51.45
2023-04-19T10:04:10.242Z,52.82
2023-04-19T10:07:13.954Z,52.63
2023-04-19T10:10:11.914Z,50.69
2023-04-19T10:13:07.587Z,53.25
2023-04-19T10:15:50.097Z,53.11
2023-04-19T10:21:20.781Z,52.23
2023-04-19T10:23:48.163Z,52.78
2023-04-19T10:26:15.509Z,54.07
2023-04-19T10:28:43.124Z,55.46
2023-04-19T10:31:16.613Z,56.43
2023-04-19T10:33:44.084Z,55.21
2023-04-19T10:36:14.386Z,55.79
2023-04-19T10:38:49.353Z,55.62
2023-04-19T10:41:19.180Z,57.30
2023-04-19T10:43:55.696Z,57.54
2023-04-19T10:46:23.378Z,57.15
2023-04-19T10:48:54.218Z,56.67
2023-04-19T10:51:28.959Z,56.18
2023-04-19T10:53:59.936Z,55.07
2023-04-19T10:56:33.401Z,53.82
2023-04-19T10:59:03.445Z,54.25
2023-04-19T11:01:51.076Z,53.28
2023-04-19T11:04:23.242Z,51.48
2023-04-19T11:06:53.801Z,50.52
2023-04-19T11:09:27.259Z,48.85
2023-04-19T11:15:41.788Z,47.35
2023-04-19T11:18:49.891Z,48.48
2023-04-19T11:21:23.060Z,49.71
2023-04-19T11:24:33.859Z,50.38
2023-04-19T11:27:29.288Z,49.82
2023-04-19T11:30:03.871Z,48.17
2023-04-19T11:32:34.668Z,44.05
2023-04-19T11:35:11.645Z,44.84
2023-04-19T11:37:40.358Z,42.38
2023-04-19T11:40:12.017Z,45.30
2023-04-19T11:42:46.694Z,44.74
2023-04-19T11:45:31.704Z,41.45
2023-04-19T11:48:01.498Z,42.84
2023-04-19T11:50:37.638Z,41.92
2023-04-19T11:53:12.134Z,43.47
2023-04-19T11:55:40.976Z,41.82
2023-04-19T11:58:11.189Z,41.69
2023-04-19T12:00:38.651Z,42.19
2023-04-19T12:03:07.657Z,42.38
2023-04-19T12:05:35.370Z,41.84
2023-04-19T12:08:04.469Z,41.55
2023-04-19T12:10:32.835Z,42.23
2023-04-19T12:13:01.598Z,42.70
2023-04-19T12:15:44.776Z,41.79
2023-04-19T12:18:12.534Z,42.48
2023-04-19T12:21:01.354Z,41.47
2023-04-19T12:23:28.848Z,41.58
2023-04-19T12:25:56.370Z,40.67
2023-04-19T12:28:23.719Z,39.54
2023-04-19T12:30:53.124Z,38.82
2023-04-19T12:33:21.681Z,37.40
2023-04-19T12:35:50.648Z,38.79
2023-04-19T12:38:18.050Z,39.58
2023-04-19T12:40:45.537Z,39.93
2023-04-19T12:43:12.855Z,39.34
2023-04-19T12:45:40.244Z,38.12
2023-04-19T12:48:07.679Z,36.87
2023-04-19T12:50:35.336Z,36.09
2023-04-19T12:53:02.858Z,35.02
2023-04-19T12:55:30.186Z,34.57
2023-04-19T12:57:57.493Z,32.66
2023-04-19T13:00:24.870Z,33.28
2023-04-19T13:02:52.547Z,32.88
2023-04-19T13:05:19.976Z,32.69
2023-04-19T13:07:47.324Z,32.67
2023-04-19T13:10:14.730Z,34.85
2023-04-19T13:12:42.053Z,36.79
2023-04-19T13:15:10.124Z,38.11
2023-04-19T13:17:38.191Z,38.84
2023-04-19T13:20:09.563Z,37.97
2023-04-19T13:22:36.890Z,36.39
2023-04-19T13:25:04.484Z,34.23
2023-04-19T13:27:31.857Z,33.34
2023-04-19T13:29:59.236Z,33.71
2023-04-19T13:32:26.777Z,33.58
2023-04-19T13:34:54.218Z,33.44
2023-04-19T13:37:21.529Z,35.48
2023-04-19T13:39:48.895Z,36.51
2023-04-19T13:42:16.332Z,36.59
2023-04-19T13:44:44.829Z,37.74
2023-04-19T13:47:14.537Z,38.21
2023-04-19T13:49:43.023Z,39.49
2023-04-19T13:52:12.830Z,39.74
2023-04-19T13:54:40.114Z,39.99
2023-04-19T13:57:07.462Z,40.72
2023-04-19T13:59:34.771Z,39.98
2023-04-19T14:02:05.561Z,39.91
2023-04-19T14:04:33.115Z,40.06
2023-04-19T14:07:00.445Z,39.69
2023-04-19T14:09:27.797Z,40.11
2023-04-19T14:11:55.125Z,40.57
2023-04-19T14:14:23.860Z,40.65
2023-04-19T14:16:51.193Z,40.56
2023-04-19T14:19:18.543Z,40.01
2023-04-19T14:21:45.902Z,39.84
2023-04-19T14:24:13.197Z,40.69
2023-04-19T14:26:40.601Z,39.95
2023-04-19T14:29:07.911Z,39.55
2023-04-19T14:31:35.239Z,37.89
2023-04-19T14:34:02.582Z,35.94
2023-04-19T14:36:30.148Z,36.70
2023-04-19T14:38:57.430Z,37.06
2023-04-19T14:41:25.366Z,34.59
2023-04-19T14:43:52.845Z,34.55
2023-04-19T14:46:20.262Z,35.81
2023-04-19T14:48:47.700Z,36.29
2023-04-19T14:51:15.051Z,34.11
2023-04-19T14:53:42.447Z,34.09
2023-04-19T14:56:14.703Z,34.78
2023-04-19T14:58:42.237Z,36.03
2023-04-19T15:01:13.371Z,36.93
2023-04-19T15:03:41.065Z,37.52
2023-04-19T15:06:14.637Z,37.93
2023-04-19T15:08:43.199Z,38.52
2023-04-19T15:11:10.693Z,39.58
2023-04-19T15:13:38.114Z,40.19
2023-04-19T15:16:07.495Z,40.04
2023-04-19T15:18:35.283Z,39.98
2023-04-19T15:21:07.624Z,40.48
2023-04-19T15:23:34.968Z,40.70
2023-04-19T15:26:02.358Z,40.79
2023-04-19T15:28:29.730Z,40.55
2023-04-19T15:30:59.128Z,40.93
2023-04-19T15:33:26.672Z,41.09
2023-04-19T15:35:54.501Z,41.98
2023-04-19T15:38:26.023Z,42.62
2023-04-19T15:40:54.816Z,42.78
2023-04-19T15:43:22.657Z,43.53
2023-04-19T15:45:50.230Z,42.37
2023-04-19T15:48:17.768Z,43.09
2023-04-19T15:50:45.357Z,42.23
2023-04-19T15:53:12.780Z,41.89
2023-04-19T15:55:41.435Z,42.20
2023-04-19T15:58:08.722Z,42.29
2023-04-19T16:00:36.107Z,42.97
2023-04-19T16:03:03.784Z,42.51
2023-04-19T16:05:31.253Z,41.80
2023-04-19T16:08:05.384Z,41.72
2023-04-19T16:10:32.908Z,42.09
2023-04-19T16:13:01.045Z,42.52
2023-04-19T16:15:28.671Z,42.89
2023-04-19T16:17:56.081Z,43.16
2023-04-19T16:20:23.527Z,43.19
2023-04-19T16:22:51.051Z,44.11
2023-04-19T16:25:18.464Z,44.66
2023-04-19T16:27:46.371Z,44.83
2023-04-19T16:30:14.205Z,45.50
2023-04-19T16:32:41.902Z,44.88
2023-04-19T16:35:09.948Z,44.76
2023-04-19T16:37:37.370Z,45.17
2023-04-19T16:40:08.710Z,44.67
2023-04-19T16:42:36.635Z,44.85
2023-04-19T16:45:04.359Z,45.01
2023-04-19T16:47:32.034Z,45.98
2023-04-19T16:49:59.630Z,46.19
2023-04-19T16:52:36.092Z,45.60
2023-04-19T16:55:04.446Z,45.96
2023-04-19T16:57:31.919Z,45.70
2023-04-19T16:59:59.186Z,45.67
2023-04-19T17:02:27.284Z,45.85
2023-04-19T17:04:56.172Z,45.67
2023-04-19T17:07:23.624Z,45.98
2023-04-19T17:09:50.985Z,45.99
2023-04-19T17:12:18.434Z,46.43
2023-04-19T17:14:45.798Z,46.31
2023-04-19T17:17:13.135Z,46.14
2023-04-19T17:19:40.499Z,46.37
2023-04-19T17:22:07.784Z,47.08
2023-04-19T17:24:35.029Z,46.94
2023-04-19T17:27:02.701Z,46.88
2023-04-19T17:29:30.166Z,47.19
2023-04-19T17:31:57.539Z,46.99
2023-04-19T17:34:24.844Z,47.57
2023-04-19T17:36:52.173Z,47.65
2023-04-19T17:39:19.457Z,48.05
2023-04-19T17:41:46.778Z,48.68
2023-04-19T17:44:14.132Z,48.11
2023-04-19T17:46:41.541Z,48.08
2023-04-19T17:49:09.113Z,48.84
2023-04-19T17:51:36.433Z,49.31
2023-04-19T17:54:03.893Z,49.50
2023-04-19T17:56:31.515Z,50.26
2023-04-19T17:59:00.761Z,51.04
2023-04-19T18:01:29.709Z,51.96
2023-04-19T18:03:57.304Z,51.94
2023-04-19T18:06:24.900Z,52.50
2023-04-19T18:08:52.231Z,53.41
2023-04-19T18:11:19.729Z,52.31
2023-04-19T18:13:47.093Z,52.13
2023-04-19T18:16:15.860Z,52.47
2023-04-19T18:18:43.287Z,52.66
2023-04-19T18:21:10.644Z,52.73
2023-04-19T18:23:37.923Z,53.10
2023-04-19T18:26:05.289Z,54.07
2023-04-19T18:28:35.079Z,53.92
2023-04-19T18:31:02.382Z,54.10
2023-04-19T18:33:29.723Z,53.86
2023-04-19T18:35:57.906Z,54.29
2023-04-19T18:38:25.294Z,53.65
2023-04-19T18:40:52.812Z,53.96
2023-04-19T18:43:20.352Z,54.14
2023-04-19T18:45:57.341Z,54.07
2023-04-19T18:48:30.853Z,54.63
2023-04-19T18:51:00.769Z,54.42
2023-04-19T18:53:31.635Z,54.64
2023-04-19T18:55:59.052Z,55.00
2023-04-19T18:58:26.828Z,55.07
2023-04-19T19:00:54.817Z,55.36
2023-04-19T19:05:58.518Z,55.88
2023-04-19T19:08:26.174Z,55.35
2023-04-19T19:13:23.624Z,55.72
2023-04-19T19:15:50.917Z,55.30
2023-04-19T19:18:18.443Z,55.18
2023-04-19T19:20:45.850Z,55.00
2023-04-19T19:23:13.217Z,55.09
2023-04-19T19:25:40.913Z,54.99
2023-04-19T19:28:10.255Z,55.40
2023-04-19T19:30:42.839Z,54.71
2023-04-19T19:33:11.268Z,55.07
2023-04-19T19:35:39.627Z,55.30
2023-04-19T19:38:07.207Z,55.72
2023-04-19T19:40:34.751Z,55.93
2023-04-19T19:43:02.134Z,55.95
2023-04-19T19:45:32.280Z,56.21
2023-04-19T19:48:00.163Z,56.04
2023-04-19T19:53:00.035Z,56.69
2023-04-19T19:55:27.583Z,56.80
2023-04-19T20:00:44.002Z,56.84
2023-04-19T20:03:12.859Z,56.34
2023-04-19T20:05:40.537Z,56.55
2023-04-19T20:08:12.079Z,56.91
2023-04-19T20:10:40.870Z,57.29
2023-04-19T20:13:08.281Z,57.12
2023-04-19T20:15:36.501Z,57.67
2023-04-19T20:18:04.391Z,57.56
2023-04-19T20:20:31.797Z,57.50
2023-04-19T20:22:59.193Z,57.74
2023-04-19T20:25:26.893Z,57.95
2023-04-19T20:27:55.089Z,58.31
2023-04-19T20:30:22.411Z,58.22
2023-04-19T20:32:50.395Z,58.70
2023-04-19T20:35:18.251Z,58.69
2023-04-19T20:37:46.537Z,58.59
2023-04-19T20:40:15.133Z,58.93
2023-04-19T20:42:42.534Z,59.00
2023-04-19T20:45:10.695Z,58.79
2023-04-19T20:47:38.979Z,58.70
2023-04-19T20:50:07.213Z,58.63
2023-04-19T20:52:35.031Z,59.33
2023-04-19T20:55:02.409Z,59.51
2023-04-19T20:57:29.779Z,59.35
2023-04-19T20:59:57.104Z,59.89
2023-04-19T21:02:24.599Z,60.38
2023-04-19T21:04:52.055Z,59.71
2023-04-19T21:07:20.284Z,59.95
2023-04-19T21:09:47.615Z,60.24
2023-04-19T21:12:14.941Z,60.60
2023-04-19T21:14:42.238Z,60.97
2023-04-19T21:17:09.535Z,60.54
2023-04-19T21:19:37.306Z,61.08
2023-04-19T21:22:04.616Z,60.84
2023-04-19T21:24:33.209Z,60.67
2023-04-19T21:27:00.983Z,60.45
2023-04-19T21:29:28.352Z,61.29
2023-04-19T21:31:56.285Z,61.17
2023-04-19T21:34:23.750Z,61.43
2023-04-19T21:36:51.098Z,61.50
2023-04-19T21:39:18.498Z,61.58
2023-04-19T21:41:46.012Z,61.50
2023-04-19T21:44:13.262Z,61.84
2023-04-19T21:46:40.930Z,62.17
2023-04-19T21:49:08.338Z,62.29
2023-04-19T21:51:37.062Z,62.55
2023-04-19T21:54:04.415Z,62.80
2023-04-19T21:56:31.895Z,62.78
2023-04-19T21:58:59.503Z,62.26
2023-04-19T22:01:28.189Z,62.48
2023-04-19T22:03:55.769Z,62.80
2023-04-19T22:06:23.224Z,62.89
2023-04-19T22:08:50.678Z,63.36
2023-04-19T22:11:18.475Z,63.32
2023-04-19T22:13:46.247Z,63.20
2023-04-19T22:16:15.023Z,63.90
2023-04-19T22:18:42.451Z,64.41
2023-04-19T22:21:10.835Z,64.32
2023-04-19T22:23:39.306Z,64.15
2023-04-19T22:26:06.639Z,64.67
2023-04-19T22:28:35.997Z,64.53
2023-04-19T22:31:03.816Z,64.65
2023-04-19T22:33:31.105Z,65.53
2023-04-19T22:35:58.453Z,65.17
2023-04-19T22:38:25.797Z,65.47
2023-04-19T22:40:53.487Z,66.07
2023-04-19T22:43:21.453Z,64.87
2023-04-19T22:45:48.725Z,65.68
2023-04-19T22:48:15.990Z,65.07
2023-04-19T22:50:43.655Z,65.08
2023-04-19T22:53:12.840Z,65.89
2023-04-19T22:55:40.510Z,65.21
2023-04-19T22:58:08.105Z,66.56
2023-04-19T23:00:38.526Z,66.62
2023-04-19T23:03:06.946Z,66.01
2023-04-19T23:05:34.351Z,66.82
2023-04-19T23:08:04.390Z,66.39
2023-04-19T23:10:31.871Z,66.93
2023-04-19T23:12:59.404Z,68.24
2023-04-19T23:15:28.629Z,68.22
2023-04-19T23:17:56.001Z,67.24
2023-04-19T23:20:24.150Z,68.08
2023-04-19T23:22:51.771Z,68.44
2023-04-19T23:25:19.081Z,68.75
2023-04-19T23:27:46.672Z,68.79
2023-04-19T23:30:14.082Z,67.27
2023-04-19T23:32:41.489Z,68.06
2023-04-19T23:35:09.088Z,68.17
2023-04-19T23:37:37.095Z,67.48
2023-04-19T23:40:08.455Z,68.35
2023-04-19T23:42:37.350Z,68.19
2023-04-19T23:45:06.153Z,67.69
2023-04-19T23:47:34.267Z,67.93
2023-04-19T23:50:01.656Z,68.45
2023-04-19T23:52:28.912Z,68.85
2023-04-19T23:54:56.223Z,68.64
2023-04-19T23:57:23.576Z,68.98
2023-04-19T23:59:50.873Z,69.79
